AZU2113 SBKP-SBCF
Flight info
| Callsign | AZU2113 |
|---|---|
| Flight time | 0h 50m |
| Altitude | 37000 |
| Route | KONVI UZ23 KIBAP |
| Aircraft | E195/M-SDE3GILORVW/S |
Departure
| Time | 2026-05-09 13:44 |
|---|---|
| Airport | Viracopos International Airport (SBKP) |
Arrival
| Time | 2026-05-09 14:35 |
|---|---|
| Airport | Tancredo Neves International Airport (SBCF) |
| Time | Latitude | Longitude | Altitude | Speed | Heading |
|---|---|---|---|---|---|
| 2026-05-09 12:55 | -23.00502 | -47.14940 | 2177 ft | 0 kts | 37° |
| 2026-05-09 13:28 | -23.00506 | -47.14944 | 2177 ft | 2 kts | 37° |
| 2026-05-09 13:29 | -23.00514 | -47.14950 | 2177 ft | 1 kts | 37° |
| 2026-05-09 13:29 | -23.00527 | -47.14957 | 2177 ft | 2 kts | 7° |
| 2026-05-09 13:29 | -23.00542 | -47.14956 | 2177 ft | 2 kts | 341° |
| 2026-05-09 13:29 | -23.00556 | -47.14948 | 2177 ft | 1 kts | 314° |
| 2026-05-09 13:30 | -23.00559 | -47.14944 | 2177 ft | 0 kts | 305° |
| 2026-05-09 13:30 | -23.00544 | -47.14964 | 2177 ft | 3 kts | 307° |
| 2026-05-09 13:30 | -23.00538 | -47.14972 | 2177 ft | 0 kts | 307° |
| 2026-05-09 13:33 | -23.00536 | -47.14974 | 2177 ft | 1 kts | 308° |
| 2026-05-09 13:34 | -23.00524 | -47.14991 | 2177 ft | 4 kts | 308° |
| 2026-05-09 13:34 | -23.00496 | -47.15031 | 2177 ft | 8 kts | 307° |
| 2026-05-09 13:34 | -23.00450 | -47.15095 | 2177 ft | 12 kts | 307° |
| 2026-05-09 13:34 | -23.00399 | -47.15163 | 2177 ft | 5 kts | 326° |
| 2026-05-09 13:35 | -23.00361 | -47.15157 | 2177 ft | 6 kts | 36° |
| 2026-05-09 13:35 | -23.00315 | -47.15120 | 2177 ft | 11 kts | 39° |
| 2026-05-09 13:35 | -23.00235 | -47.15052 | 2177 ft | 17 kts | 37° |
| 2026-05-09 13:35 | -23.00135 | -47.14968 | 2177 ft | 15 kts | 40° |
| 2026-05-09 13:36 | -23.00102 | -47.14853 | 2177 ft | 17 kts | 88° |
| 2026-05-09 13:36 | -23.00162 | -47.14734 | 2177 ft | 18 kts | 128° |
| 2026-05-09 13:36 | -23.00230 | -47.14625 | 2177 ft | 15 kts | 93° |
| 2026-05-09 13:36 | -23.00202 | -47.14529 | 2177 ft | 14 kts | 110° |
| 2026-05-09 13:37 | -23.00264 | -47.14433 | 2177 ft | 16 kts | 128° |
| 2026-05-09 13:37 | -23.00339 | -47.14328 | 2177 ft | 18 kts | 128° |
| 2026-05-09 13:37 | -23.00421 | -47.14214 | 2178 ft | 20 kts | 127° |
| 2026-05-09 13:37 | -23.00510 | -47.14090 | 2178 ft | 21 kts | 127° |
| 2026-05-09 13:38 | -23.00601 | -47.13963 | 2178 ft | 21 kts | 127° |
| 2026-05-09 13:38 | -23.00692 | -47.13836 | 2178 ft | 22 kts | 128° |
| 2026-05-09 13:38 | -23.00710 | -47.13811 | 2178 ft | 22 kts | 128° |
| 2026-05-09 13:38 | -23.00781 | -47.13712 | 2178 ft | 23 kts | 127° |
| 2026-05-09 13:39 | -23.00884 | -47.13569 | 2178 ft | 24 kts | 128° |
| 2026-05-09 13:39 | -23.00989 | -47.13422 | 2178 ft | 24 kts | 127° |
| 2026-05-09 13:39 | -23.01097 | -47.13269 | 2179 ft | 25 kts | 127° |
| 2026-05-09 13:39 | -23.01208 | -47.13113 | 2179 ft | 26 kts | 126° |
| 2026-05-09 13:40 | -23.01323 | -47.12954 | 2179 ft | 27 kts | 127° |
| 2026-05-09 13:40 | -23.01440 | -47.12790 | 2179 ft | 27 kts | 128° |
| 2026-05-09 13:40 | -23.01560 | -47.12623 | 2179 ft | 28 kts | 128° |
| 2026-05-09 13:40 | -23.01681 | -47.12453 | 2180 ft | 26 kts | 127° |
| 2026-05-09 13:41 | -23.01736 | -47.12378 | 2180 ft | 4 kts | 128° |
| 2026-05-09 13:41 | -23.01750 | -47.12333 | 2180 ft | 8 kts | 84° |
| 2026-05-09 13:41 | -23.01715 | -47.12281 | 2180 ft | 0 kts | 39° |
| 2026-05-09 13:42 | -23.01715 | -47.12280 | 2180 ft | 0 kts | 39° |
| 2026-05-09 13:42 | -23.01694 | -47.12262 | 2180 ft | 6 kts | 38° |
| 2026-05-09 13:42 | -23.01641 | -47.12231 | 2180 ft | 10 kts | 8° |
| 2026-05-09 13:43 | -23.01597 | -47.12256 | 2180 ft | 0 kts | 307° |
| 2026-05-09 13:43 | -23.01597 | -47.12257 | 2180 ft | 0 kts | 307° |
| 2026-05-09 13:43 | -23.01493 | -47.12398 | 2180 ft | 58 kts | 308° |
| 2026-05-09 13:44 | -23.01108 | -47.12937 | 2179 ft | 120 kts | 308° |
| 2026-05-09 13:44 | -23.00486 | -47.13815 | 2196 ft | 166 kts | 310° |
| 2026-05-09 13:44 | -22.99748 | -47.14850 | 2537 ft | 180 kts | 310° |
| 2026-05-09 13:44 | -22.98977 | -47.15928 | 3193 ft | 181 kts | 323° |
| 2026-05-09 13:45 | -22.97749 | -47.16367 | 3614 ft | 204 kts | 4° |
| 2026-05-09 13:45 | -22.96366 | -47.15747 | 4182 ft | 224 kts | 22° |
| 2026-05-09 13:45 | -22.94913 | -47.15141 | 5061 ft | 227 kts | 13° |
| 2026-05-09 13:45 | -22.93387 | -47.14710 | 5962 ft | 230 kts | 8° |
| 2026-05-09 13:46 | -22.91877 | -47.14110 | 6649 ft | 249 kts | 33° |
| 2026-05-09 13:46 | -22.90802 | -47.12564 | 7404 ft | 269 kts | 57° |
| 2026-05-09 13:46 | -22.89949 | -47.10733 | 8259 ft | 273 kts | 57° |
| 2026-05-09 13:46 | -22.89091 | -47.08927 | 8998 ft | 269 kts | 57° |
| 2026-05-09 13:47 | -22.88221 | -47.07119 | 9569 ft | 272 kts | 57° |
| 2026-05-09 13:47 | -22.87325 | -47.05271 | 10168 ft | 280 kts | 57° |
| 2026-05-09 13:47 | -22.86399 | -47.03366 | 10791 ft | 291 kts | 57° |
| 2026-05-09 13:47 | -22.85469 | -47.01454 | 11411 ft | 300 kts | 58° |
| 2026-05-09 13:48 | -22.84480 | -46.99420 | 12057 ft | 309 kts | 58° |
| 2026-05-09 13:48 | -22.83454 | -46.97315 | 12730 ft | 316 kts | 59° |
| 2026-05-09 13:48 | -22.82411 | -46.95172 | 13402 ft | 322 kts | 59° |
| 2026-05-09 13:48 | -22.81364 | -46.93023 | 14086 ft | 327 kts | 59° |
| 2026-05-09 13:49 | -22.80283 | -46.90804 | 14792 ft | 332 kts | 58° |
| 2026-05-09 13:49 | -22.79196 | -46.88576 | 15499 ft | 335 kts | 58° |
| 2026-05-09 13:49 | -22.78093 | -46.86316 | 16220 ft | 338 kts | 58° |
| 2026-05-09 13:49 | -22.76987 | -46.84053 | 16941 ft | 340 kts | 58° |
| 2026-05-09 13:50 | -22.75882 | -46.81790 | 17661 ft | 342 kts | 57° |
| 2026-05-09 13:50 | -22.74755 | -46.79484 | 18400 ft | 343 kts | 57° |
| 2026-05-09 13:50 | -22.73467 | -46.77307 | 19131 ft | 335 kts | 42° |
| 2026-05-09 13:50 | -22.71854 | -46.75496 | 19869 ft | 333 kts | 40° |
| 2026-05-09 13:51 | -22.70243 | -46.73727 | 20576 ft | 333 kts | 39° |
| 2026-05-09 13:51 | -22.68736 | -46.71800 | 21285 ft | 341 kts | 57° |
| 2026-05-09 13:51 | -22.68096 | -46.69318 | 22073 ft | 350 kts | 84° |
| 2026-05-09 13:51 | -22.68089 | -46.66691 | 22868 ft | 346 kts | 86° |
| 2026-05-09 13:52 | -22.68109 | -46.64110 | 23597 ft | 343 kts | 86° |
| 2026-05-09 13:52 | -22.68129 | -46.61468 | 23602 ft | 353 kts | 86° |
| 2026-05-09 13:52 | -22.68153 | -46.58786 | 23620 ft | 358 kts | 86° |
| 2026-05-09 13:52 | -22.68176 | -46.56025 | 23682 ft | 373 kts | 87° |
| 2026-05-09 13:53 | -22.68200 | -46.53184 | 23839 ft | 389 kts | 87° |
| 2026-05-09 13:53 | -22.68225 | -46.50178 | 24072 ft | 402 kts | 87° |
| 2026-05-09 13:53 | -22.68251 | -46.47071 | 24370 ft | 413 kts | 87° |
| 2026-05-09 13:53 | -22.68277 | -46.43937 | 24707 ft | 423 kts | 87° |
| 2026-05-09 13:54 | -22.68302 | -46.40701 | 25081 ft | 431 kts | 88° |
| 2026-05-09 13:54 | -22.68327 | -46.37434 | 25482 ft | 437 kts | 88° |
| 2026-05-09 13:54 | -22.68353 | -46.34092 | 25907 ft | 441 kts | 87° |
| 2026-05-09 13:54 | -22.68378 | -46.30754 | 26319 ft | 443 kts | 87° |
| 2026-05-09 13:55 | -22.68401 | -46.27387 | 26737 ft | 446 kts | 87° |
| 2026-05-09 13:55 | -22.68425 | -46.24019 | 27156 ft | 449 kts | 87° |
| 2026-05-09 13:55 | -22.68341 | -46.20578 | 27579 ft | 449 kts | 80° |
| 2026-05-09 13:55 | -22.67772 | -46.17294 | 27994 ft | 446 kts | 70° |
| 2026-05-09 13:56 | -22.66677 | -46.14122 | 28424 ft | 443 kts | 59° |
| 2026-05-09 13:56 | -22.65140 | -46.11289 | 28850 ft | 438 kts | 49° |
| 2026-05-09 13:56 | -22.63161 | -46.08772 | 29280 ft | 434 kts | 38° |
| 2026-05-09 13:56 | -22.60844 | -46.06707 | 29713 ft | 428 kts | 28° |
| 2026-05-09 13:57 | -22.58222 | -46.05119 | 30156 ft | 422 kts | 18° |
| 2026-05-09 13:57 | -22.55456 | -46.04097 | 30592 ft | 416 kts | 7° |
| 2026-05-09 13:57 | -22.52601 | -46.03205 | 31031 ft | 423 kts | 15° |
| 2026-05-09 13:57 | -22.49927 | -46.01792 | 31452 ft | 433 kts | 25° |
| 2026-05-09 13:58 | -22.47434 | -45.99828 | 31873 ft | 442 kts | 36° |
| 2026-05-09 13:58 | -22.45195 | -45.97415 | 32301 ft | 447 kts | 39° |
| 2026-05-09 13:58 | -22.42902 | -45.95138 | 32726 ft | 444 kts | 35° |
| 2026-05-09 13:58 | -22.40511 | -45.92961 | 33161 ft | 444 kts | 34° |
| 2026-05-09 13:59 | -22.38130 | -45.90844 | 33627 ft | 445 kts | 34° |
| 2026-05-09 13:59 | -22.35687 | -45.88689 | 34087 ft | 446 kts | 33° |
| 2026-05-09 13:59 | -22.33236 | -45.86531 | 34544 ft | 447 kts | 33° |
| 2026-05-09 13:59 | -22.30821 | -45.84408 | 34983 ft | 446 kts | 33° |
| 2026-05-09 14:00 | -22.28394 | -45.82277 | 35393 ft | 443 kts | 33° |
| 2026-05-09 14:00 | -22.27564 | -45.81556 | 35529 ft | 443 kts | 33° |
| 2026-05-09 14:00 | -22.23547 | -45.78081 | 36165 ft | 441 kts | 33° |
| 2026-05-09 14:00 | -22.21114 | -45.75978 | 36533 ft | 440 kts | 33° |
| 2026-05-09 14:01 | -22.18705 | -45.73896 | 36881 ft | 440 kts | 33° |
| 2026-05-09 14:01 | -22.16299 | -45.71818 | 37174 ft | 442 kts | 33° |
| 2026-05-09 14:01 | -22.11331 | -45.67532 | 37210 ft | 460 kts | 33° |
| 2026-05-09 14:02 | -22.06252 | -45.63152 | 37216 ft | 472 kts | 33° |
| 2026-05-09 14:02 | -22.01133 | -45.58740 | 37214 ft | 469 kts | 33° |
| 2026-05-09 14:03 | -21.95983 | -45.54308 | 37222 ft | 467 kts | 33° |
| 2026-05-09 14:03 | -21.90925 | -45.49958 | 37222 ft | 467 kts | 33° |
| 2026-05-09 14:04 | -21.85804 | -45.45558 | 37221 ft | 468 kts | 33° |
| 2026-05-09 14:04 | -21.80693 | -45.41172 | 37218 ft | 468 kts | 33° |
| 2026-05-09 14:05 | -21.75581 | -45.36789 | 37214 ft | 468 kts | 33° |
| 2026-05-09 14:05 | -21.70495 | -45.32431 | 37203 ft | 468 kts | 33° |
| 2026-05-09 14:06 | -21.65412 | -45.28081 | 37207 ft | 467 kts | 33° |
| 2026-05-09 14:06 | -21.60285 | -45.23697 | 37210 ft | 467 kts | 33° |
| 2026-05-09 14:07 | -21.55182 | -45.19338 | 37214 ft | 466 kts | 33° |
| 2026-05-09 14:07 | -21.50157 | -45.15049 | 37212 ft | 467 kts | 33° |
| 2026-05-09 14:08 | -21.45014 | -45.10663 | 37206 ft | 467 kts | 33° |
| 2026-05-09 14:08 | -21.42485 | -45.08507 | 37191 ft | 453 kts | 33° |
| 2026-05-09 14:08 | -21.40032 | -45.06418 | 37198 ft | 446 kts | 33° |
| 2026-05-09 14:09 | -21.35104 | -45.02225 | 37213 ft | 449 kts | 33° |
| 2026-05-09 14:09 | -21.30158 | -44.98019 | 37215 ft | 449 kts | 33° |
| 2026-05-09 14:10 | -21.22754 | -44.91729 | 37205 ft | 450 kts | 33° |
| 2026-05-09 14:11 | -21.17785 | -44.87512 | 37204 ft | 450 kts | 33° |
| 2026-05-09 14:11 | -21.12860 | -44.83335 | 37193 ft | 440 kts | 33° |
| 2026-05-09 14:11 | -21.10403 | -44.81255 | 35760 ft | 459 kts | 34° |
| 2026-05-09 14:12 | -21.07857 | -44.79100 | 34097 ft | 472 kts | 34° |
| 2026-05-09 14:12 | -21.05281 | -44.76922 | 32505 ft | 480 kts | 34° |
| 2026-05-09 14:12 | -21.02559 | -44.74822 | 30997 ft | 486 kts | 32° |
| 2026-05-09 14:12 | -20.99788 | -44.72706 | 30090 ft | 477 kts | 32° |
| 2026-05-09 14:13 | -20.97079 | -44.70636 | 29528 ft | 464 kts | 32° |
| 2026-05-09 14:14 | -20.79693 | -44.57491 | 26160 ft | 418 kts | 22° |
| 2026-05-09 14:15 | -20.76964 | -44.56501 | 25741 ft | 410 kts | 12° |
| 2026-05-09 14:15 | -20.74146 | -44.55711 | 25258 ft | 407 kts | 12° |
| 2026-05-09 14:15 | -20.71411 | -44.54961 | 24805 ft | 403 kts | 12° |
| 2026-05-09 14:15 | -20.68645 | -44.54208 | 24347 ft | 400 kts | 12° |
| 2026-05-09 14:16 | -20.65939 | -44.53473 | 23903 ft | 397 kts | 12° |
| 2026-05-09 14:16 | -20.63239 | -44.52739 | 23458 ft | 394 kts | 12° |
| 2026-05-09 14:16 | -20.60517 | -44.52001 | 23006 ft | 392 kts | 12° |
| 2026-05-09 14:16 | -20.57897 | -44.51291 | 22575 ft | 388 kts | 12° |
| 2026-05-09 14:17 | -20.55251 | -44.50573 | 22142 ft | 386 kts | 12° |
| 2026-05-09 14:17 | -20.52623 | -44.49861 | 21711 ft | 383 kts | 12° |
| 2026-05-09 14:17 | -20.50023 | -44.49157 | 21280 ft | 382 kts | 12° |
| 2026-05-09 14:17 | -20.47412 | -44.48449 | 20854 ft | 379 kts | 12° |
| 2026-05-09 14:18 | -20.44866 | -44.47760 | 20434 ft | 377 kts | 12° |
| 2026-05-09 14:18 | -20.42306 | -44.47068 | 20019 ft | 374 kts | 12° |
| 2026-05-09 14:18 | -20.39786 | -44.46386 | 19608 ft | 372 kts | 13° |
| 2026-05-09 14:18 | -20.37254 | -44.45701 | 19194 ft | 369 kts | 12° |
| 2026-05-09 14:19 | -20.34727 | -44.45014 | 18812 ft | 367 kts | 13° |
| 2026-05-09 14:19 | -20.32267 | -44.44345 | 18410 ft | 365 kts | 13° |
| 2026-05-09 14:19 | -20.29787 | -44.43670 | 18005 ft | 362 kts | 13° |
| 2026-05-09 14:19 | -20.27303 | -44.42994 | 17594 ft | 360 kts | 13° |
| 2026-05-09 14:20 | -20.24895 | -44.42339 | 17209 ft | 358 kts | 13° |
| 2026-05-09 14:20 | -20.22476 | -44.41682 | 16810 ft | 354 kts | 13° |
| 2026-05-09 14:20 | -20.20083 | -44.41032 | 16415 ft | 351 kts | 13° |
| 2026-05-09 14:21 | -20.15350 | -44.39746 | 15635 ft | 343 kts | 13° |
| 2026-05-09 14:21 | -20.13001 | -44.39108 | 15253 ft | 342 kts | 13° |
| 2026-05-09 14:21 | -20.10694 | -44.38482 | 14874 ft | 339 kts | 13° |
| 2026-05-09 14:21 | -20.08402 | -44.37861 | 14494 ft | 336 kts | 14° |
| 2026-05-09 14:22 | -20.06137 | -44.37246 | 14123 ft | 332 kts | 14° |
| 2026-05-09 14:22 | -20.03891 | -44.36638 | 13779 ft | 329 kts | 14° |
| 2026-05-09 14:22 | -20.01666 | -44.36035 | 13414 ft | 325 kts | 14° |
| 2026-05-09 14:22 | -19.99466 | -44.35441 | 13054 ft | 322 kts | 14° |
| 2026-05-09 14:23 | -19.97264 | -44.34845 | 12698 ft | 322 kts | 14° |
| 2026-05-09 14:23 | -19.95069 | -44.34252 | 12338 ft | 320 kts | 14° |
| 2026-05-09 14:23 | -19.92896 | -44.33664 | 11972 ft | 317 kts | 14° |
| 2026-05-09 14:23 | -19.90783 | -44.33093 | 11621 ft | 310 kts | 14° |
| 2026-05-09 14:24 | -19.88721 | -44.32536 | 11289 ft | 300 kts | 14° |
| 2026-05-09 14:24 | -19.86717 | -44.31995 | 11271 ft | 287 kts | 14° |
| 2026-05-09 14:24 | -19.84752 | -44.31464 | 11273 ft | 289 kts | 14° |
| 2026-05-09 14:24 | -19.82768 | -44.30928 | 11284 ft | 292 kts | 14° |
| 2026-05-09 14:25 | -19.80762 | -44.30387 | 11286 ft | 292 kts | 14° |
| 2026-05-09 14:25 | -19.78748 | -44.29843 | 11076 ft | 294 kts | 14° |
| 2026-05-09 14:25 | -19.76785 | -44.29293 | 10769 ft | 287 kts | 20° |
| 2026-05-09 14:25 | -19.75042 | -44.28327 | 10514 ft | 279 kts | 29° |
| 2026-05-09 14:26 | -19.73355 | -44.27274 | 10204 ft | 272 kts | 30° |
| 2026-05-09 14:26 | -19.71717 | -44.26248 | 9724 ft | 271 kts | 30° |
| 2026-05-09 14:26 | -19.70087 | -44.25226 | 9397 ft | 264 kts | 30° |
| 2026-05-09 14:26 | -19.68503 | -44.24233 | 9088 ft | 258 kts | 30° |
| 2026-05-09 14:27 | -19.66949 | -44.23259 | 8798 ft | 257 kts | 30° |
| 2026-05-09 14:27 | -19.65378 | -44.22278 | 8525 ft | 257 kts | 28° |
| 2026-05-09 14:27 | -19.63807 | -44.21421 | 8291 ft | 248 kts | 26° |
| 2026-05-09 14:27 | -19.62287 | -44.20604 | 8030 ft | 241 kts | 26° |
| 2026-05-09 14:28 | -19.60797 | -44.19804 | 7819 ft | 231 kts | 26° |
| 2026-05-09 14:28 | -19.59398 | -44.19052 | 7576 ft | 222 kts | 26° |
| 2026-05-09 14:28 | -19.58023 | -44.18314 | 7294 ft | 215 kts | 26° |
| 2026-05-09 14:28 | -19.56709 | -44.17608 | 7040 ft | 208 kts | 26° |
| 2026-05-09 14:29 | -19.55360 | -44.17165 | 6896 ft | 194 kts | 18° |
| 2026-05-09 14:29 | -19.54357 | -44.16290 | 6868 ft | 188 kts | 60° |
| 2026-05-09 14:29 | -19.53746 | -44.15066 | 6865 ft | 191 kts | 57° |
| 2026-05-09 14:29 | -19.53014 | -44.13862 | 6710 ft | 194 kts | 53° |
| 2026-05-09 14:30 | -19.52208 | -44.12698 | 6509 ft | 194 kts | 51° |
| 2026-05-09 14:30 | -19.51381 | -44.11589 | 6322 ft | 187 kts | 49° |
| 2026-05-09 14:30 | -19.50615 | -44.10500 | 6075 ft | 182 kts | 66° |
| 2026-05-09 14:30 | -19.50616 | -44.09238 | 5968 ft | 171 kts | 109° |
| 2026-05-09 14:31 | -19.51354 | -44.08229 | 5650 ft | 173 kts | 131° |
| 2026-05-09 14:31 | -19.52203 | -44.07356 | 5361 ft | 166 kts | 133° |
| 2026-05-09 14:31 | -19.53008 | -44.06482 | 5088 ft | 165 kts | 132° |
| 2026-05-09 14:31 | -19.53860 | -44.05632 | 4835 ft | 166 kts | 134° |
| 2026-05-09 14:32 | -19.54699 | -44.04840 | 4594 ft | 153 kts | 135° |
| 2026-05-09 14:32 | -19.55468 | -44.04127 | 4364 ft | 138 kts | 135° |
| 2026-05-09 14:32 | -19.56189 | -44.03463 | 4193 ft | 135 kts | 135° |
| 2026-05-09 14:32 | -19.56906 | -44.02803 | 4033 ft | 136 kts | 135° |
| 2026-05-09 14:33 | -19.57640 | -44.02129 | 3861 ft | 138 kts | 135° |
| 2026-05-09 14:33 | -19.58352 | -44.01475 | 3687 ft | 138 kts | 136° |
| 2026-05-09 14:33 | -19.59080 | -44.00806 | 3509 ft | 136 kts | 136° |
| 2026-05-09 14:33 | -19.59807 | -44.00139 | 3338 ft | 135 kts | 136° |
| 2026-05-09 14:34 | -19.60525 | -43.99480 | 3162 ft | 135 kts | 136° |
| 2026-05-09 14:34 | -19.61247 | -43.98817 | 2994 ft | 135 kts | 136° |
| 2026-05-09 14:34 | -19.61956 | -43.98167 | 2812 ft | 134 kts | 137° |
| 2026-05-09 14:34 | -19.62674 | -43.97526 | 2689 ft | 133 kts | 137° |
| 2026-05-09 14:35 | -19.63252 | -43.96992 | 2676 ft | 80 kts | 139° |
| 2026-05-09 14:35 | -19.63528 | -43.96730 | 2683 ft | 36 kts | 125° |
| 2026-05-09 14:35 | -19.63595 | -43.96576 | 2690 ft | 11 kts | 110° |
| 2026-05-09 14:35 | -19.63614 | -43.96519 | 2693 ft | 6 kts | 109° |
| 2026-05-09 14:36 | -19.63624 | -43.96486 | 2694 ft | 3 kts | 107° |
| 2026-05-09 14:36 | -19.63633 | -43.96457 | 2696 ft | 4 kts | 107° |
| 2026-05-09 14:36 | -19.63641 | -43.96428 | 2697 ft | 4 kts | 104° |
| 2026-05-09 14:36 | -19.63640 | -43.96398 | 2698 ft | 5 kts | 69° |
| 2026-05-09 14:37 | -19.63594 | -43.96359 | 2701 ft | 9 kts | 29° |
| 2026-05-09 14:37 | -19.63540 | -43.96329 | 2703 ft | 8 kts | 27° |
| 2026-05-09 14:37 | -19.63496 | -43.96308 | 2705 ft | 5 kts | 16° |
| 2026-05-09 14:37 | -19.63462 | -43.96311 | 2706 ft | 5 kts | 325° |
| 2026-05-09 14:38 | -19.63423 | -43.96322 | 2706 ft | 6 kts | 17° |
| 2026-05-09 14:38 | -19.63391 | -43.96307 | 2707 ft | 3 kts | 25° |
| 2026-05-09 14:38 | -19.63389 | -43.96306 | 2707 ft | 0 kts | 26° |